Time;durP1;ratioP1;P1;durP2;ratioP2;P2;SDS_P1;SDS_P2;PMS_P1;PMS_P2;Temp;Humidity;BMP_temperature;BMP_pressure;BME280_temperature;BME280_humidity;BME280_pressure;Samples;Min_cycle;Max_cycle;Signal;HPM_P1;HPM_P2
2020/12/06 00:01:31;;;;;;;32.43;20.63;;;4.50;99.90;;;;;;5051004;28;20234;-58
2020/12/06 00:03:56;;;;;;;19.47;14.30;;;4.70;99.90;;;;;;5048331;28;20273;-57
2020/12/06 00:06:23;;;;;;;37.20;24.40;;;4.70;99.90;;;;;;5051576;28;20217;-58
2020/12/06 00:08:53;;;;;;;20.00;14.37;;;4.90;99.90;;;;;;5050446;28;20194;-57
2020/12/06 00:11:19;;;;;;;22.33;15.93;;;5.00;99.90;;;;;;5045976;28;20197;-57
2020/12/06 00:13:46;;;;;;;14.83;11.07;;;5.10;99.90;;;;;;5053356;28;20278;-60
2020/12/06 00:16:19;;;;;;;11.33;8.80;;;5.30;99.90;;;;;;5053056;28;20202;-59
2020/12/06 00:18:46;;;;;;;13.10;8.87;;;5.40;99.90;;;;;;5051654;28;20262;-57
2020/12/06 00:21:16;;;;;;;18.93;12.30;;;5.40;99.90;;;;;;5055884;28;20305;-59
2020/12/06 00:23:42;;;;;;;16.60;12.10;;;5.60;99.90;;;;;;5043389;28;20553;-59
2020/12/06 00:26:07;;;;;;;11.03;7.87;;;5.80;99.90;;;;;;5040918;28;20639;-58
2020/12/06 00:28:33;;;;;;;10.83;7.23;;;5.90;99.90;;;;;;5054707;28;20179;-58
2020/12/06 00:30:59;;;;;;;13.20;8.53;;;6.00;99.90;;;;;;5060293;28;20183;-59
2020/12/06 00:33:25;;;;;;;10.07;7.87;;;6.10;99.90;;;;;;5052443;28;20209;-57
2020/12/06 00:35:51;;;;;;;9.40;7.10;;;6.20;99.90;;;;;;5052526;28;20338;-60
2020/12/06 00:38:16;;;;;;;8.23;5.87;;;6.40;99.90;;;;;;5053736;28;20563;-56
2020/12/06 00:40:42;;;;;;;7.43;5.40;;;6.50;99.90;;;;;;5047376;28;20642;-58
2020/12/06 00:43:07;;;;;;;7.00;5.20;;;6.60;99.90;;;;;;5053973;28;20186;-56
2020/12/06 00:45:33;;;;;;;11.67;7.57;;;6.70;99.90;;;;;;5052668;28;20500;-59
2020/12/06 00:47:59;;;;;;;7.03;5.63;;;6.80;99.90;;;;;;5052839;28;20202;-58
2020/12/06 00:50:24;;;;;;;6.43;5.33;;;7.00;99.90;;;;;;5052787;28;20171;-57
2020/12/06 00:52:50;;;;;;;8.30;6.00;;;7.10;99.90;;;;;;5054401;28;20568;-58
2020/12/06 00:55:16;;;;;;;5.80;4.83;;;7.10;99.90;;;;;;5055521;28;20170;-58
2020/12/06 00:57:41;;;;;;;11.33;6.90;;;7.20;99.90;;;;;;5053564;28;20259;-58
2020/12/06 01:00:09;;;;;;;11.03;7.20;;;7.20;99.90;;;;;;5050021;28;20190;-58
2020/12/06 01:02:35;;;;;;;7.73;5.60;;;7.30;99.90;;;;;;5047394;28;20799;-55
2020/12/06 01:05:00;;;;;;;8.37;5.00;;;7.40;99.90;;;;;;5050373;28;20194;-59
2020/12/06 01:07:26;;;;;;;7.33;4.60;;;7.50;99.90;;;;;;5050836;28;20281;-58
2020/12/06 01:09:52;;;;;;;5.80;4.80;;;7.60;99.90;;;;;;5047696;28;20180;-59
2020/12/06 01:12:17;;;;;;;5.93;4.37;;;7.60;99.90;;;;;;5048751;28;20579;-57
2020/12/06 01:14:43;;;;;;;5.50;4.50;;;7.60;99.90;;;;;;5050940;28;20270;-59
2020/12/06 01:17:08;;;;;;;6.90;4.87;;;7.80;99.90;;;;;;5053523;28;20214;-54
2020/12/06 01:19:34;;;;;;;6.50;4.50;;;7.90;99.90;;;;;;5050003;28;20197;-59
2020/12/06 01:21:59;;;;;;;6.80;4.90;;;8.00;99.90;;;;;;5048538;28;20639;-59
2020/12/06 01:24:25;;;;;;;6.27;4.40;;;8.10;99.90;;;;;;5054968;28;20287;-59
2020/12/06 01:26:51;;;;;;;5.50;4.50;;;8.10;99.90;;;;;;5048510;28;20673;-55
2020/12/06 01:29:17;;;;;;;7.50;4.73;;;8.10;99.90;;;;;;5044197;28;20186;-56
2020/12/06 01:31:47;;;;;;;6.10;3.80;;;8.10;99.90;;;;;;5048195;28;20183;-57
2020/12/06 01:34:13;;;;;;;5.70;4.30;;;8.10;99.90;;;;;;5035199;28;20175;-60
2020/12/06 01:36:39;;;;;;;6.10;3.90;;;8.20;99.90;;;;;;5051785;28;20226;-57
2020/12/06 01:39:05;;;;;;;4.60;4.00;;;8.30;99.90;;;;;;5053519;28;20191;-59
2020/12/06 01:41:31;;;;;;;5.73;4.33;;;8.40;99.90;;;;;;5053358;28;20186;-59
2020/12/06 01:43:57;;;;;;;5.63;3.90;;;8.50;99.90;;;;;;5054638;28;20273;-60
2020/12/06 01:46:23;;;;;;;5.10;3.97;;;8.50;99.90;;;;;;5055093;28;20210;-54
2020/12/06 01:48:53;;;;;;;5.53;3.90;;;9.70;99.90;;;;;;5048941;28;20190;-57
2020/12/06 01:51:20;;;;;;;5.23;4.07;;;8.70;99.90;;;;;;5045780;28;20203;-58
2020/12/06 01:53:48;;;;;;;4.90;3.50;;;8.60;99.90;;;;;;5050841;28;20539;-57
2020/12/06 01:56:14;;;;;;;6.33;3.60;;;8.60;99.90;;;;;;5053678;28;20207;-60
2020/12/06 01:58:40;;;;;;;5.47;3.57;;;8.70;99.90;;;;;;5053015;28;20202;-59
2020/12/06 02:01:09;;;;;;;4.63;3.60;;;8.80;99.90;;;;;;5047247;28;20241;-55
2020/12/06 02:03:35;;;;;;;6.10;4.00;;;9.80;99.90;;;;;;5044556;28;20642;-57
2020/12/06 02:06:01;;;;;;;4.60;3.10;;;8.80;99.90;;;;;;5050113;28;20587;-58
2020/12/06 02:08:27;;;;;;;5.23;3.47;;;8.80;99.90;;;;;;5045066;28;20703;-59
2020/12/06 02:10:54;;;;;;;4.67;3.57;;;8.90;99.90;;;;;;5041624;28;20253;-57
2020/12/06 02:13:23;;;;;;;5.93;3.53;;;8.90;99.90;;;;;;5051195;28;20199;-58
2020/12/06 02:15:49;;;;;;;4.53;3.13;;;8.90;99.90;;;;;;5041344;28;20204;-58
2020/12/06 02:18:16;;;;;;;3.70;3.10;;;9.00;99.90;;;;;;5042776;28;20222;-60
2020/12/06 02:20:42;;;;;;;4.30;3.37;;;9.00;99.90;;;;;;5045222;28;20185;-56
2020/12/06 02:23:08;;;;;;;3.20;2.87;;;9.10;99.90;;;;;;5039676;28;20188;-58
2020/12/06 02:25:35;;;;;;;5.27;3.27;;;9.10;99.90;;;;;;5050931;28;20190;-59
2020/12/06 02:28:02;;;;;;;3.40;2.77;;;9.20;99.90;;;;;;5053760;28;20728;-56
2020/12/06 02:30:28;;;;;;;3.60;2.87;;;9.30;99.90;;;;;;5057156;28;20179;-59
2020/12/06 02:32:53;;;;;;;4.10;3.03;;;9.30;99.90;;;;;;5052390;28;20555;-60
2020/12/06 02:35:19;;;;;;;4.37;3.00;;;9.40;99.90;;;;;;5049994;28;20206;-59
2020/12/06 02:37:44;;;;;;;4.03;2.77;;;10.60;99.90;;;;;;5035049;28;20203;-60
2020/12/06 02:40:10;;;;;;;4.03;3.10;;;9.50;99.90;;;;;;5052692;28;20195;-58
2020/12/06 02:42:35;;;;;;;3.57;2.77;;;9.50;99.90;;;;;;5053324;28;20270;-56
2020/12/06 02:45:01;;;;;;;3.67;3.17;;;9.60;99.90;;;;;;5051133;28;20183;-55
2020/12/06 02:47:26;;;;;;;4.43;3.30;;;9.60;99.90;;;;;;5053482;28;20621;-59
2020/12/06 02:49:52;;;;;;;3.80;2.77;;;10.60;99.90;;;;;;5052334;28;20194;-58
2020/12/06 02:52:18;;;;;;;4.77;3.13;;;9.60;99.90;;;;;;5054020;28;20258;-59
2020/12/06 02:54:43;;;;;;;4.40;3.07;;;9.60;99.90;;;;;;5045054;28;20179;-58
2020/12/06 02:57:09;;;;;;;3.83;2.80;;;9.60;99.90;;;;;;5053639;28;20211;-59
2020/12/06 02:59:35;;;;;;;4.83;2.63;;;9.70;99.90;;;;;;5054708;28;20713;-60
2020/12/06 03:02:00;;;;;;;5.47;2.90;;;9.70;99.90;;;;;;5053770;28;20198;-58
2020/12/06 03:04:26;;;;;;;3.67;2.90;;;9.80;99.90;;;;;;5051033;28;20171;-59
2020/12/06 03:06:51;;;;;;;3.27;2.60;;;9.90;99.90;;;;;;5049253;28;20200;-60
2020/12/06 03:09:17;;;;;;;3.20;2.70;;;9.90;99.90;;;;;;5034811;28;20178;-60
2020/12/06 03:11:42;;;;;;;3.80;3.13;;;9.90;99.90;;;;;;5052888;28;20203;-55
2020/12/06 03:14:08;;;;;;;4.80;3.20;;;10.00;99.90;;;;;;5053903;28;20185;-60
2020/12/06 03:16:33;;;;;;;3.70;2.67;;;10.00;99.90;;;;;;5053245;28;20218;-60
2020/12/06 03:18:59;;;;;;;4.97;2.87;;;10.10;99.90;;;;;;5055257;28;20210;-54
2020/12/06 03:21:25;;;;;;;4.70;2.90;;;10.10;99.90;;;;;;5051877;28;20305;-58
2020/12/06 03:23:50;;;;;;;3.97;3.00;;;10.10;99.90;;;;;;5053887;28;20175;-58
2020/12/06 03:26:16;;;;;;;7.40;6.07;;;10.20;99.90;;;;;;5045694;28;20187;-60
2020/12/06 03:28:41;;;;;;;8.77;6.83;;;10.20;99.90;;;;;;5050030;28;20233;-55
2020/12/06 03:31:07;;;;;;;6.13;4.90;;;10.10;99.90;;;;;;5057845;28;20199;-56
2020/12/06 03:33:32;;;;;;;6.57;5.07;;;10.00;99.90;;;;;;5055815;28;20171;-56
2020/12/06 03:35:58;;;;;;;4.67;3.60;;;10.00;99.90;;;;;;5054500;28;20213;-58
2020/12/06 03:38:23;;;;;;;4.67;3.20;;;9.90;99.90;;;;;;5056472;28;20198;-57
2020/12/06 03:40:49;;;;;;;4.37;3.23;;;9.90;99.90;;;;;;5047718;28;20191;-60
2020/12/06 03:43:14;;;;;;;4.67;3.43;;;9.90;99.90;;;;;;5049241;28;20179;-60
2020/12/06 03:45:40;;;;;;;4.27;3.20;;;10.00;99.90;;;;;;5038516;28;20183;-57
2020/12/06 03:48:05;;;;;;;4.43;3.30;;;9.90;99.90;;;;;;5055805;28;20214;-57
2020/12/06 03:50:31;;;;;;;5.37;3.57;;;9.90;99.90;;;;;;5054085;28;20630;-58
2020/12/06 03:52:56;;;;;;;4.40;3.67;;;9.90;99.90;;;;;;5055198;28;20555;-58
2020/12/06 03:55:22;;;;;;;5.40;3.77;;;9.90;99.90;;;;;;5043742;28;20578;-59
2020/12/06 03:57:48;;;;;;;5.03;3.30;;;9.90;99.90;;;;;;5045366;28;20210;-59
2020/12/06 04:00:13;;;;;;;6.13;3.53;;;9.90;99.90;;;;;;5055549;28;20181;-60
2020/12/06 04:02:39;;;;;;;3.80;3.10;;;9.90;99.90;;;;;;5049246;28;20203;-58
2020/12/06 04:05:05;;;;;;;6.93;3.50;;;9.90;99.90;;;;;;5046683;28;20201;-57
2020/12/06 04:07:30;;;;;;;4.33;3.50;;;9.90;99.90;;;;;;5054896;28;20631;-59
2020/12/06 04:09:56;;;;;;;4.10;3.43;;;9.90;99.90;;;;;;5055866;28;20190;-55
2020/12/06 04:12:21;;;;;;;5.03;4.20;;;10.00;99.90;;;;;;5047458;28;20269;-60
2020/12/06 04:14:47;;;;;;;4.57;3.47;;;9.90;99.90;;;;;;5047739;28;20243;-59
2020/12/06 04:17:13;;;;;;;4.67;3.33;;;9.80;99.90;;;;;;5053974;28;20207;-60
2020/12/06 04:19:38;;;;;;;4.40;3.10;;;9.80;99.90;;;;;;5054306;28;20183;-59
2020/12/06 04:22:06;;;;;;;4.87;3.70;;;9.80;99.90;;;;;;5056630;28;20280;-57
2020/12/06 04:24:34;;;;;;;6.57;3.73;;;9.80;99.90;;;;;;5053125;28;20179;-53
2020/12/06 04:27:00;;;;;;;7.07;4.00;;;9.90;99.90;;;;;;5053647;28;20207;-55
2020/12/06 04:29:26;;;;;;;6.23;4.27;;;9.80;99.90;;;;;;5056714;28;20272;-58
2020/12/06 04:31:51;;;;;;;6.17;3.70;;;9.80;99.90;;;;;;5053115;28;20591;-59
2020/12/06 04:34:17;;;;;;;6.20;3.87;;;9.80;99.90;;;;;;5047921;28;20198;-57
2020/12/06 04:36:42;;;;;;;5.10;3.90;;;9.70;99.90;;;;;;5039684;28;20215;-57
2020/12/06 04:39:08;;;;;;;5.90;4.37;;;9.70;99.90;;;;;;5046065;28;20203;-55
2020/12/06 04:41:33;;;;;;;5.40;4.00;;;9.80;99.90;;;;;;5049609;28;20209;-57
2020/12/06 04:43:59;;;;;;;4.93;4.00;;;9.80;99.90;;;;;;5054425;28;20179;-58
2020/12/06 04:46:27;;;;;;;5.30;4.00;;;9.80;99.90;;;;;;5049300;28;20191;-58
2020/12/06 04:49:06;;;;;;;6.27;3.60;;;9.80;99.90;;;;;;5048910;28;20193;-59
2020/12/06 04:51:43;;;;;;;6.70;4.33;;;9.70;99.90;;;;;;5053636;28;20186;-57
2020/12/06 04:54:09;;;;;;;4.60;3.90;;;9.60;99.90;;;;;;5051175;28;20193;-54
2020/12/06 04:56:37;;;;;;;6.07;5.20;;;9.60;99.90;;;;;;5043073;28;20253;-56
2020/12/06 04:59:04;;;;;;;7.57;6.37;;;9.50;99.90;;;;;;5053907;28;20180;-59
2020/12/06 05:01:37;;;;;;;7.23;5.63;;;9.60;99.90;;;;;;5035969;28;20604;-57
2020/12/06 05:04:14;;;;;;;5.30;4.63;;;9.60;99.90;;;;;;5036138;28;20251;-60
2020/12/06 05:06:41;;;;;;;6.40;4.00;;;9.50;99.90;;;;;;5041972;28;20640;-59
2020/12/06 05:09:12;;;;;;;6.67;4.60;;;9.40;99.90;;;;;;5056934;28;20527;-58
2020/12/06 05:11:38;;;;;;;6.00;3.80;;;9.50;99.90;;;;;;5036721;28;20341;-59
2020/12/06 05:14:07;;;;;;;4.80;3.60;;;9.60;99.90;;;;;;5043459;28;20667;-59
2020/12/06 05:16:38;;;;;;;4.37;3.20;;;9.60;99.90;;;;;;5056021;28;20603;-57
2020/12/06 05:19:05;;;;;;;5.67;3.47;;;9.60;99.90;;;;;;5056100;28;20178;-60
2020/12/06 05:21:36;;;;;;;4.50;3.17;;;9.70;99.90;;;;;;5056750;28;20194;-58
2020/12/06 05:24:02;;;;;;;5.93;3.10;;;9.70;99.90;;;;;;5055432;28;20175;-58
2020/12/06 05:26:28;;;;;;;4.17;3.27;;;9.70;99.90;;;;;;5056379;28;20191;-58
2020/12/06 05:28:55;;;;;;;3.40;2.80;;;9.80;99.90;;;;;;5052190;28;20193;-60
2020/12/06 05:31:24;;;;;;;3.80;3.00;;;9.80;99.90;;;;;;5053703;28;20210;-56
2020/12/06 05:33:50;;;;;;;4.17;3.70;;;9.90;99.90;;;;;;5056034;28;20183;-57
2020/12/06 05:36:16;;;;;;;5.43;3.23;;;9.90;99.90;;;;;;5057197;28;20245;-58
2020/12/06 05:38:42;;;;;;;5.47;3.40;;;9.90;99.90;;;;;;5053182;28;20179;-57
2020/12/06 05:41:08;;;;;;;6.47;3.10;;;10.00;99.90;;;;;;5053551;28;20186;-57
2020/12/06 05:43:34;;;;;;;4.00;3.20;;;10.00;99.90;;;;;;5055440;28;20171;-54
2020/12/06 05:46:16;;;;;;;4.03;3.20;;;10.00;99.90;;;;;;5054224;28;20213;-58
2020/12/06 05:48:43;;;;;;;5.30;3.73;;;10.10;99.90;;;;;;5053813;28;21074;-58
2020/12/06 05:51:10;;;;;;;5.40;3.23;;;10.10;99.90;;;;;;5039044;28;20225;-57
2020/12/06 05:53:35;;;;;;;7.73;3.70;;;10.10;99.90;;;;;;5029208;28;20183;-58
2020/12/06 05:56:15;;;;;;;8.10;4.10;;;10.10;99.90;;;;;;5051803;28;20210;-60
2020/12/06 05:58:42;;;;;;;7.60;3.77;;;10.10;99.90;;;;;;5043134;28;20738;-58
2020/12/06 06:01:10;;;;;;;3.83;3.47;;;10.10;99.90;;;;;;5048371;28;20273;-60
2020/12/06 06:03:36;;;;;;;3.87;3.10;;;10.10;99.90;;;;;;5038723;28;20190;-54
2020/12/06 06:06:04;;;;;;;5.00;3.60;;;10.00;99.90;;;;;;5043822;28;20184;-55
2020/12/06 06:08:31;;;;;;;5.37;3.60;;;10.00;99.90;;;;;;5050956;28;20211;-60
2020/12/06 06:11:04;;;;;;;8.07;4.33;;;10.00;99.90;;;;;;5038020;28;20215;-60
2020/12/06 06:13:39;;;;;;;3.73;2.83;;;10.10;99.90;;;;;;5052806;28;20179;-57
2020/12/06 06:16:07;;;;;;;3.83;3.17;;;10.00;99.90;;;;;;5040879;28;20229;-58
2020/12/06 06:18:34;;;;;;;5.27;3.20;;;10.00;99.90;;;;;;5053963;28;20179;-59
2020/12/06 06:21:00;;;;;;;4.10;3.33;;;9.90;99.90;;;;;;5052232;28;20274;-59
2020/12/06 06:23:26;;;;;;;5.27;3.17;;;9.90;99.90;;;;;;5050913;28;20623;-58
2020/12/06 06:25:53;;;;;;;4.13;3.20;;;9.90;99.90;;;;;;5046667;28;20208;-60
2020/12/06 06:28:19;;;;;;;3.33;3.03;;;10.00;99.90;;;;;;5053784;28;20207;-59
2020/12/06 06:30:44;;;;;;;3.57;2.97;;;10.00;99.90;;;;;;5051030;28;20270;-54
2020/12/06 06:33:13;;;;;;;4.03;3.17;;;10.00;99.90;;;;;;5055237;28;20249;-57
2020/12/06 06:35:43;;;;;;;5.43;3.30;;;10.00;99.90;;;;;;5051939;28;20199;-58
2020/12/06 06:38:09;;;;;;;5.10;3.30;;;10.10;99.90;;;;;;5045226;28;20203;-59
2020/12/06 06:40:34;;;;;;;3.93;2.93;;;10.20;99.90;;;;;;5044289;28;20191;-59
2020/12/06 06:43:04;;;;;;;4.93;3.30;;;10.20;99.90;;;;;;5053455;28;20195;-60
2020/12/06 06:45:42;;;;;;;3.43;3.03;;;10.20;99.90;;;;;;5050104;28;20746;-59
2020/12/06 06:48:11;;;;;;;3.77;2.93;;;10.20;99.90;;;;;;5049144;28;20272;-60
2020/12/06 06:50:37;;;;;;;4.43;3.10;;;10.30;99.90;;;;;;5046027;28;20241;-58
2020/12/06 06:53:03;;;;;;;3.60;2.77;;;10.30;99.90;;;;;;5051968;28;20183;-58
2020/12/06 06:55:50;;;;;;;3.97;2.57;;;10.30;99.90;;;;;;5055570;28;20282;-59
2020/12/06 06:58:18;;;;;;;4.67;2.97;;;10.40;99.90;;;;;;5057295;28;20511;-59
2020/12/06 07:00:43;;;;;;;3.80;2.70;;;10.40;99.90;;;;;;5055857;28;20187;-56
2020/12/06 07:03:12;;;;;;;3.83;2.67;;;10.50;99.90;;;;;;5055382;28;20238;-56
2020/12/06 07:05:38;;;;;;;3.53;2.50;;;10.50;99.90;;;;;;5054639;28;20183;-57
2020/12/06 07:08:15;;;;;;;4.23;2.87;;;10.60;99.90;;;;;;5055074;28;20244;-57
2020/12/06 07:10:41;;;;;;;4.43;3.00;;;10.60;99.90;;;;;;5055903;28;20515;-60
2020/12/06 07:13:07;;;;;;;3.53;2.57;;;10.70;99.90;;;;;;5060057;28;20176;-58
2020/12/06 07:15:33;;;;;;;5.13;3.07;;;10.70;99.90;;;;;;5056873;28;20266;-56
2020/12/06 07:17:59;;;;;;;4.93;2.77;;;10.70;99.90;;;;;;5058573;28;20229;-59
2020/12/06 07:20:26;;;;;;;4.37;2.93;;;10.80;99.90;;;;;;5059053;28;20198;-57
2020/12/06 07:22:53;;;;;;;2.97;2.40;;;10.90;99.90;;;;;;5057925;28;20175;-57
2020/12/06 07:25:19;;;;;;;5.90;2.50;;;10.90;99.90;;;;;;5057180;28;20197;-59
2020/12/06 07:27:46;;;;;;;3.40;2.47;;;11.00;99.90;;;;;;5057173;28;20230;-57
2020/12/06 07:30:16;;;;;;;3.63;2.60;;;11.10;99.90;;;;;;5057449;28;20183;-60
2020/12/06 07:32:42;;;;;;;4.23;3.00;;;11.20;99.90;;;;;;5057879;28;20507;-54
2020/12/06 07:35:10;;;;;;;4.07;2.77;;;11.30;99.90;;;;;;5056564;28;20171;-59
2020/12/06 07:37:36;;;;;;;3.03;2.60;;;11.40;99.90;;;;;;5056860;28;20548;-57
2020/12/06 07:40:09;;;;;;;3.00;2.30;;;11.50;99.90;;;;;;5058854;28;20256;-59
2020/12/06 07:42:35;;;;;;;4.57;2.53;;;11.60;99.90;;;;;;5058360;28;20565;-59
2020/12/06 07:45:03;;;;;;;2.50;2.30;;;11.70;99.90;;;;;;5057487;28;20258;-59
2020/12/06 07:47:28;;;;;;;4.10;2.70;;;12.00;99.90;;;;;;5057950;28;20203;-59
2020/12/06 07:49:55;;;;;;;3.87;2.50;;;12.60;99.90;;;;;;5058849;28;20179;-60
2020/12/06 07:52:29;;;;;;;2.87;2.30;;;13.40;99.90;;;;;;5058754;28;20192;-60
2020/12/06 07:55:02;;;;;;;4.17;1.93;;;14.40;99.90;;;;;;5059265;28;20190;-56
2020/12/06 07:57:39;;;;;;;2.40;2.10;;;14.80;99.90;;;;;;5056019;28;20272;-59
2020/12/06 08:00:08;;;;;;;3.53;2.23;;;14.70;99.70;;;;;;5055938;28;20589;-54
2020/12/06 08:02:35;;;;;;;3.53;2.27;;;14.40;99.90;;;;;;5056752;28;20179;-58
2020/12/06 08:05:02;;;;;;;4.27;3.40;;;14.20;99.90;;;;;;5055685;28;20231;-57
2020/12/06 08:07:36;;;;;;;3.27;1.97;;;13.90;99.90;;;;;;5056868;28;20208;-56
2020/12/06 08:10:03;;;;;;;3.80;2.67;;;13.60;99.90;;;;;;5057324;28;20167;-58
2020/12/06 08:12:32;;;;;;;2.73;2.53;;;13.50;99.90;;;;;;5057900;28;20558;-57
2020/12/06 08:15:06;;;;;;;5.30;2.30;;;13.30;99.90;;;;;;5048218;28;20183;-59
2020/12/06 08:17:42;;;;;;;3.50;2.53;;;13.20;99.90;;;;;;5035914;28;20265;-56
2020/12/06 08:20:10;;;;;;;4.17;2.77;;;13.10;99.90;;;;;;5037295;28;20199;-57
2020/12/06 08:22:49;;;;;;;3.17;2.30;;;13.10;99.90;;;;;;5039103;28;20221;-58
2020/12/06 08:25:14;;;;;;;3.97;2.53;;;13.10;99.90;;;;;;5035605;28;20640;-58
2020/12/06 08:27:43;;;;;;;2.83;2.23;;;13.60;99.90;;;;;;5038630;28;20211;-57
2020/12/06 08:30:17;;;;;;;3.70;2.40;;;13.20;99.90;;;;;;5036184;28;20266;-57
2020/12/06 08:32:53;;;;;;;2.90;2.13;;;13.20;99.90;;;;;;5036321;28;20188;-56
2020/12/06 08:35:19;;;;;;;3.30;2.47;;;13.20;99.90;;;;;;5035426;28;20188;-54
2020/12/06 08:37:45;;;;;;;5.23;2.40;;;13.20;99.90;;;;;;5036828;28;20209;-58
2020/12/06 08:40:11;;;;;;;4.57;2.67;;;13.10;99.90;;;;;;5037808;28;20173;-57
2020/12/06 08:42:37;;;;;;;3.50;2.57;;;13.10;99.90;;;;;;5037929;28;20263;-59
2020/12/06 08:45:03;;;;;;;2.80;2.30;;;14.10;99.90;;;;;;5037662;28;20313;-59
2020/12/06 08:47:46;;;;;;;3.30;3.00;;;13.00;99.90;;;;;;5038727;28;20299;-57
2020/12/06 08:50:16;;;;;;;4.17;2.67;;;13.10;99.90;;;;;;5036286;28;20177;-58
2020/12/06 08:52:43;;;;;;;3.83;2.40;;;13.00;99.90;;;;;;5034862;28;20197;-56
2020/12/06 08:55:35;;;;;;;2.60;2.40;;;13.00;99.90;;;;;;5035931;28;20182;-59
2020/12/06 08:58:01;;;;;;;4.77;2.60;;;13.00;99.90;;;;;;5034846;28;20675;-59
2020/12/06 09:00:26;;;;;;;4.33;2.57;;;13.00;99.90;;;;;;5036435;28;20175;-58
2020/12/06 09:02:55;;;;;;;4.30;3.17;;;13.00;99.90;;;;;;5035021;28;20176;-56
2020/12/06 09:05:21;;;;;;;2.63;2.43;;;13.00;99.90;;;;;;5034925;28;20183;-58
2020/12/06 09:07:46;;;;;;;5.93;2.60;;;12.90;99.90;;;;;;5035370;28;20265;-57
2020/12/06 09:10:12;;;;;;;6.57;2.50;;;13.00;99.90;;;;;;5034794;28;20180;-58
2020/12/06 09:12:38;;;;;;;5.00;2.37;;;13.00;99.90;;;;;;5035545;28;20253;-58
2020/12/06 09:15:07;;;;;;;2.70;2.17;;;13.00;99.90;;;;;;5037025;28;20176;-59
2020/12/06 09:17:34;;;;;;;3.20;2.60;;;13.00;99.90;;;;;;5039343;28;20228;-59
2020/12/06 09:19:59;;;;;;;2.93;2.37;;;13.00;99.90;;;;;;5034220;28;20196;-58
2020/12/06 09:22:25;;;;;;;3.53;2.47;;;13.00;99.90;;;;;;5034449;28;20182;-54
2020/12/06 09:24:50;;;;;;;3.73;2.40;;;13.00;99.90;;;;;;5036330;28;20249;-59
2020/12/06 09:27:16;;;;;;;2.90;2.40;;;13.10;99.90;;;;;;5036059;28;20212;-58
2020/12/06 09:29:42;;;;;;;3.30;2.50;;;13.10;99.90;;;;;;5036148;28;20216;-59
2020/12/06 09:32:07;;;;;;;4.73;2.70;;;13.10;99.90;;;;;;5034674;28;20268;-58
2020/12/06 09:34:33;;;;;;;3.20;2.40;;;13.20;99.90;;;;;;5034659;28;20184;-57
2020/12/06 09:36:58;;;;;;;3.37;2.50;;;13.30;99.90;;;;;;5038615;28;20240;-55
2020/12/06 09:39:24;;;;;;;3.93;2.57;;;13.30;99.90;;;;;;5035890;28;20173;-58
2020/12/06 09:41:50;;;;;;;5.00;2.70;;;13.30;99.90;;;;;;5036400;28;20206;-55
2020/12/06 09:44:15;;;;;;;4.60;2.83;;;13.30;99.90;;;;;;5036417;28;20262;-55
2020/12/06 09:46:41;;;;;;;4.70;3.90;;;13.40;99.90;;;;;;5035641;28;20191;-58
2020/12/06 09:49:06;;;;;;;6.70;5.20;;;13.50;99.90;;;;;;5034254;28;20226;-59
2020/12/06 09:51:32;;;;;;;7.30;5.77;;;13.60;99.90;;;;;;5034421;28;20199;-54
2020/12/06 09:53:58;;;;;;;5.83;4.53;;;13.70;99.90;;;;;;5035080;28;20171;-58
2020/12/06 09:56:29;;;;;;;9.33;8.07;;;14.00;99.90;;;;;;5034580;28;20206;-57
2020/12/06 09:58:56;;;;;;;4.77;3.60;;;14.40;99.90;;;;;;5033822;28;20233;-56
2020/12/06 10:01:24;;;;;;;5.17;3.40;;;14.70;99.50;;;;;;5036223;28;20169;-59
2020/12/06 10:03:50;;;;;;;5.53;3.13;;;14.70;99.30;;;;;;5034353;28;20628;-56
2020/12/06 10:06:21;;;;;;;4.73;3.17;;;14.80;99.20;;;;;;5035161;28;20175;-57
2020/12/06 10:08:46;;;;;;;3.80;3.00;;;14.80;99.10;;;;;;5035452;28;20171;-59
2020/12/06 10:11:12;;;;;;;5.30;2.80;;;14.80;99.10;;;;;;5035916;28;20187;-57
2020/12/06 10:13:37;;;;;;;2.97;2.67;;;14.80;98.90;;;;;;5037142;28;20632;-59
2020/12/06 10:16:03;;;;;;;4.00;2.83;;;14.70;99.30;;;;;;5033503;28;20282;-57
2020/12/06 10:18:28;;;;;;;3.27;2.40;;;15.60;99.80;;;;;;5033100;28;20559;-58
2020/12/06 10:20:54;;;;;;;3.97;2.77;;;14.60;99.20;;;;;;5042522;28;20576;-59
2020/12/06 10:23:19;;;;;;;5.80;2.30;;;14.60;99.20;;;;;;5058402;28;20182;-59
2020/12/06 10:25:45;;;;;;;3.33;2.60;;;14.50;99.20;;;;;;5051889;28;20176;-59
2020/12/06 10:28:10;;;;;;;4.00;2.80;;;14.50;99.40;;;;;;5054682;28;20205;-58
2020/12/06 10:30:36;;;;;;;3.13;2.23;;;14.60;99.50;;;;;;5057500;28;20186;-58
2020/12/06 10:33:01;;;;;;;4.83;3.53;;;14.50;99.70;;;;;;5058098;28;20182;-56
2020/12/06 10:35:27;;;;;;;4.90;2.70;;;14.60;99.40;;;;;;5060319;28;20220;-57
2020/12/06 10:37:52;;;;;;;5.03;3.50;;;14.40;99.40;;;;;;5058531;28;20211;-54
2020/12/06 10:40:18;;;;;;;5.03;3.40;;;14.40;99.70;;;;;;5062299;28;20169;-60
2020/12/06 10:42:46;;;;;;;3.77;2.90;;;14.30;99.90;;;;;;5059788;28;20177;-56
2020/12/06 10:45:11;;;;;;;3.87;2.77;;;14.30;99.90;;;;;;5057170;28;20708;-54
2020/12/06 10:47:37;;;;;;;3.57;2.60;;;14.30;99.90;;;;;;5057822;28;20198;-58
2020/12/06 10:50:02;;;;;;;4.10;2.63;;;14.20;99.90;;;;;;5058275;28;20178;-59
2020/12/06 10:52:28;;;;;;;3.33;2.40;;;14.30;99.90;;;;;;5057944;28;20181;-56
2020/12/06 10:54:55;;;;;;;4.67;2.90;;;14.30;99.90;;;;;;5057352;28;20174;-59
2020/12/06 10:57:20;;;;;;;3.20;2.63;;;14.30;99.90;;;;;;5059491;28;20244;-59
2020/12/06 10:59:46;;;;;;;4.57;3.57;;;14.30;99.90;;;;;;5059714;28;20166;-57
2020/12/06 11:02:11;;;;;;;4.37;2.47;;;14.50;99.90;;;;;;5058028;28;20510;-58
2020/12/06 11:04:37;;;;;;;4.13;2.60;;;14.50;99.90;;;;;;5056620;28;20189;-56
2020/12/06 11:07:02;;;;;;;4.20;2.63;;;14.50;99.90;;;;;;5058566;28;20285;-59
2020/12/06 11:09:28;;;;;;;5.93;2.43;;;14.50;99.90;;;;;;5058501;28;20183;-55
2020/12/06 11:11:54;;;;;;;4.13;2.63;;;14.50;99.90;;;;;;5056837;28;20645;-58
2020/12/06 11:14:19;;;;;;;5.90;2.40;;;14.60;99.90;;;;;;5057802;28;20232;-59
2020/12/06 11:16:49;;;;;;;4.27;2.60;;;14.50;99.90;;;;;;5058359;28;20208;-57
2020/12/06 11:19:15;;;;;;;4.20;2.90;;;14.50;99.90;;;;;;5056927;28;20254;-56
2020/12/06 11:21:40;;;;;;;5.50;3.30;;;14.50;99.90;;;;;;5057858;28;20205;-58
2020/12/06 11:24:06;;;;;;;3.13;2.43;;;14.60;99.90;;;;;;5057434;28;20170;-58
2020/12/06 11:26:31;;;;;;;3.77;2.63;;;14.60;99.90;;;;;;5057051;28;20198;-56
2020/12/06 11:28:57;;;;;;;6.20;2.40;;;14.60;99.90;;;;;;5057508;28;20189;-60
2020/12/06 11:31:23;;;;;;;4.13;2.60;;;14.60;99.90;;;;;;5057719;28;20175;-60
2020/12/06 11:33:48;;;;;;;3.47;3.10;;;14.80;99.90;;;;;;5041294;28;20485;-56
2020/12/06 11:36:14;;;;;;;3.43;2.80;;;14.90;99.90;;;;;;5037617;28;20199;-58
2020/12/06 11:38:42;;;;;;;3.03;2.40;;;15.10;99.90;;;;;;5021237;28;20180;-55
2020/12/06 11:41:07;;;;;;;4.77;3.47;;;15.40;99.90;;;;;;5038669;28;20260;-58
2020/12/06 11:43:33;;;;;;;7.40;3.40;;;15.90;99.40;;;;;;5021231;28;20652;-57
2020/12/06 11:45:58;;;;;;;4.83;3.30;;;16.50;98.90;;;;;;5036333;28;20508;-60
2020/12/06 11:48:24;;;;;;;4.53;2.63;;;17.20;97.90;;;;;;5037479;28;20199;-59
2020/12/06 11:50:49;;;;;;;3.10;2.30;;;17.70;96.70;;;;;;5035506;28;20279;-58
2020/12/06 11:53:15;;;;;;;4.20;2.60;;;18.20;96.40;;;;;;5033801;28;20180;-55
2020/12/06 11:55:41;;;;;;;2.63;2.13;;;19.20;95.50;;;;;;5035984;28;20180;-58
2020/12/06 11:58:06;;;;;;;3.72;2.50;;;19.60;94.00;;;;;;5035892;28;20192;-58
2020/12/06 12:00:32;;;;;;;4.00;2.50;;;19.60;93.40;;;;;;5056290;28;20203;-59
2020/12/06 12:02:57;;;;;;;4.40;2.57;;;19.00;93.60;;;;;;5049233;28;20266;-58
2020/12/06 12:05:23;;;;;;;4.63;2.60;;;18.60;94.10;;;;;;5051837;28;20508;-59
2020/12/06 12:07:48;;;;;;;4.07;2.53;;;18.00;94.70;;;;;;5060013;28;20201;-58
2020/12/06 12:10:15;;;;;;;4.10;2.83;;;17.60;95.00;;;;;;5055607;28;20183;-58
2020/12/06 12:12:42;;;;;;;3.33;2.50;;;17.10;95.50;;;;;;5053129;28;20296;-59
2020/12/06 12:15:08;;;;;;;5.47;2.90;;;16.90;96.30;;;;;;5049366;28;20171;-53
2020/12/06 12:17:34;;;;;;;4.43;2.73;;;16.20;96.90;;;;;;5050755;28;20204;-57
2020/12/06 12:20:00;;;;;;;4.37;2.60;;;15.90;97.30;;;;;;5052573;28;20179;-57
2020/12/06 12:22:26;;;;;;;3.30;2.50;;;15.80;97.60;;;;;;5050724;28;20171;-57
2020/12/06 12:24:52;;;;;;;4.17;2.93;;;15.70;97.80;;;;;;5053799;28;20172;-54
2020/12/06 12:27:17;;;;;;;3.20;2.63;;;15.60;97.90;;;;;;5055275;28;20207;-57
2020/12/06 12:29:43;;;;;;;3.17;2.70;;;15.70;98.20;;;;;;5053155;28;20195;-59
2020/12/06 12:32:09;;;;;;;4.13;2.63;;;16.20;98.20;;;;;;5048572;28;20169;-53
2020/12/06 12:34:34;;;;;;;4.87;3.00;;;17.00;97.20;;;;;;5050298;28;20638;-57
2020/12/06 12:37:00;;;;;;;3.17;2.83;;;17.80;96.20;;;;;;5049789;28;20526;-58
2020/12/06 12:39:25;;;;;;;5.27;2.37;;;18.50;95.30;;;;;;5046068;28;20578;-57
2020/12/06 12:41:51;;;;;;;3.97;2.67;;;18.90;94.50;;;;;;5044222;28;20180;-55
2020/12/06 12:44:17;;;;;;;2.75;2.40;;;19.20;94.00;;;;;;5051523;28;20202;-56
2020/12/06 12:46:42;;;;;;;3.63;2.53;;;19.80;93.30;;;;;;5056701;28;20208;-59
2020/12/06 12:49:08;;;;;;;2.30;1.92;;;20.60;92.90;;;;;;5050313;28;20711;-59